aviador You're here:

KORH Decoded Metar

WORCESTER in MA, USA
Report Time2017-11-23 02:54:00
UTC Time2017-11-23 03:23:35
Flight Rules mvfr MVFR
Wind310° at 10 Gusting to 19 kt
W.Decomp.*RWY 33: 10.0 kt HW 0.9 kt LCW
RWY 29: 8.2 kt HW 5.7 kt RCW
W.Rank310° ranks 11
Current wind is above 310° avg. (9.9)
Visibility9999 m
Phenomena:N/A
Clouds:Overcast 028 Hf
Expected CloudBase > 2,000 ft AGL from Temp-Dew spread
Ceiling2,800 ft
Temp02°C (ISA -11)
Dew Point-3°C (70% RH)
AAT-4.0°C
QNH1012 hPa
Density Alt-236 ft
Elevation997 ft
Report Wrong Elevation
Raw Report
KORH 230254Z AUTO 31010G19KT 10SM OVC028 02/M03 A2989 RMK AO2 PK
WND 31026/0156 SLP129 T00171033 51009=

Extra information for KORH:More info

Metar Taf Metar & Taf Last 4 Metars F.Rules Stats Wind Profile Meteogram Temp Stats Airport Information Weather charts Add Link Nearby VenuesMetar ALERT Operation Metar Decoded Social comments

AIRNAV info for KORH